sensor_id;sensor_type;location;lat;lon;timestamp;temperature;humidity
24678;DHT22;12800;53.094;8.778;2024-02-21T00:01:44;10.90;88.30
24678;DHT22;12800;53.094;8.778;2024-02-21T00:04:10;10.90;88.30
24678;DHT22;12800;53.094;8.778;2024-02-21T00:06:35;10.90;88.30
24678;DHT22;12800;53.094;8.778;2024-02-21T00:09:01;10.90;88.40
24678;DHT22;12800;53.094;8.778;2024-02-21T00:11:27;10.90;88.40
24678;DHT22;12800;53.094;8.778;2024-02-21T00:13:53;11.00;88.40
24678;DHT22;12800;53.094;8.778;2024-02-21T00:16:18;11.00;88.40
24678;DHT22;12800;53.094;8.778;2024-02-21T00:18:44;11.00;88.40
24678;DHT22;12800;53.094;8.778;2024-02-21T00:21:10;11.00;88.40
24678;DHT22;12800;53.094;8.778;2024-02-21T00:23:40;11.00;89.10
24678;DHT22;12800;53.094;8.778;2024-02-21T00:26:06;11.00;88.30
24678;DHT22;12800;53.094;8.778;2024-02-21T00:28:33;11.00;88.30
24678;DHT22;12800;53.094;8.778;2024-02-21T00:30:58;11.00;88.40
24678;DHT22;12800;53.094;8.778;2024-02-21T00:33:24;11.00;88.30
24678;DHT22;12800;53.094;8.778;2024-02-21T00:35:49;11.00;88.30
24678;DHT22;12800;53.094;8.778;2024-02-21T00:38:15;11.00;88.30
24678;DHT22;12800;53.094;8.778;2024-02-21T00:40:41;11.00;88.30
24678;DHT22;12800;53.094;8.778;2024-02-21T00:43:07;11.00;88.30
24678;DHT22;12800;53.094;8.778;2024-02-21T00:45:33;11.00;88.30
24678;DHT22;12800;53.094;8.778;2024-02-21T00:47:58;11.00;88.30
24678;DHT22;12800;53.094;8.778;2024-02-21T00:50:24;11.00;88.30
24678;DHT22;12800;53.094;8.778;2024-02-21T00:52:50;11.00;88.30
24678;DHT22;12800;53.094;8.778;2024-02-21T00:55:15;11.00;88.30
24678;DHT22;12800;53.094;8.778;2024-02-21T00:57:41;11.00;88.30
24678;DHT22;12800;53.094;8.778;2024-02-21T01:00:07;11.00;88.30
24678;DHT22;12800;53.094;8.778;2024-02-21T01:02:33;11.00;88.30
24678;DHT22;12800;53.094;8.778;2024-02-21T01:04:59;11.10;88.30
24678;DHT22;12800;53.094;8.778;2024-02-21T01:07:24;11.10;88.20
24678;DHT22;12800;53.094;8.778;2024-02-21T01:09:50;11.00;88.20
24678;DHT22;12800;53.094;8.778;2024-02-21T01:12:19;11.10;88.30
24678;DHT22;12800;53.094;8.778;2024-02-21T01:14:44;11.10;88.20
24678;DHT22;12800;53.094;8.778;2024-02-21T01:17:11;11.00;88.20
24678;DHT22;12800;53.094;8.778;2024-02-21T01:19:37;11.00;88.10
24678;DHT22;12800;53.094;8.778;2024-02-21T01:22:04;11.00;88.10
24678;DHT22;12800;53.094;8.778;2024-02-21T01:24:29;11.00;88.10
24678;DHT22;12800;53.094;8.778;2024-02-21T01:26:55;11.00;88.20
24678;DHT22;12800;53.094;8.778;2024-02-21T01:29:20;11.00;88.30
24678;DHT22;12800;53.094;8.778;2024-02-21T01:31:46;11.00;88.20
24678;DHT22;12800;53.094;8.778;2024-02-21T01:34:13;11.10;88.20
24678;DHT22;12800;53.094;8.778;2024-02-21T01:36:38;11.00;88.80
24678;DHT22;12800;53.094;8.778;2024-02-21T01:39:04;11.00;88.00
24678;DHT22;12800;53.094;8.778;2024-02-21T01:41:30;11.00;88.20
24678;DHT22;12800;53.094;8.778;2024-02-21T01:43:56;11.00;88.20
24678;DHT22;12800;53.094;8.778;2024-02-21T01:46:23;11.00;88.20
24678;DHT22;12800;53.094;8.778;2024-02-21T01:48:49;11.10;88.20
24678;DHT22;12800;53.094;8.778;2024-02-21T01:51:15;11.10;88.20
24678;DHT22;12800;53.094;8.778;2024-02-21T01:53:44;11.10;88.10
24678;DHT22;12800;53.094;8.778;2024-02-21T01:56:11;11.10;88.20
24678;DHT22;12800;53.094;8.778;2024-02-21T01:58:39;11.10;88.20
24678;DHT22;12800;53.094;8.778;2024-02-21T02:01:05;11.10;88.10
24678;DHT22;12800;53.094;8.778;2024-02-21T02:03:31;11.10;88.10
24678;DHT22;12800;53.094;8.778;2024-02-21T02:05:57;11.10;88.00
24678;DHT22;12800;53.094;8.778;2024-02-21T02:08:22;11.10;88.10
24678;DHT22;12800;53.094;8.778;2024-02-21T02:10:48;11.10;88.00
24678;DHT22;12800;53.094;8.778;2024-02-21T02:13:15;11.10;88.00
24678;DHT22;12800;53.094;8.778;2024-02-21T02:15:44;11.10;87.90
24678;DHT22;12800;53.094;8.778;2024-02-21T02:18:10;11.10;87.90
24678;DHT22;12800;53.094;8.778;2024-02-21T02:20:36;11.10;87.90
24678;DHT22;12800;53.094;8.778;2024-02-21T02:25:50;11.10;87.90
24678;DHT22;12800;53.094;8.778;2024-02-21T02:28:19;11.10;88.70
24678;DHT22;12800;53.094;8.778;2024-02-21T02:30:46;11.10;88.00
24678;DHT22;12800;53.094;8.778;2024-02-21T02:33:12;11.10;87.90
24678;DHT22;12800;53.094;8.778;2024-02-21T02:35:38;11.10;87.80
24678;DHT22;12800;53.094;8.778;2024-02-21T02:38:03;11.10;87.80
24678;DHT22;12800;53.094;8.778;2024-02-21T02:40:30;11.10;87.80
24678;DHT22;12800;53.094;8.778;2024-02-21T02:42:55;11.10;87.90
24678;DHT22;12800;53.094;8.778;2024-02-21T02:45:22;11.10;87.80
24678;DHT22;12800;53.094;8.778;2024-02-21T02:47:52;11.10;87.90
24678;DHT22;12800;53.094;8.778;2024-02-21T02:50:20;11.10;87.80
24678;DHT22;12800;53.094;8.778;2024-02-21T02:52:46;11.10;87.80
24678;DHT22;12800;53.094;8.778;2024-02-21T02:55:11;11.10;87.80
24678;DHT22;12800;53.094;8.778;2024-02-21T02:57:37;11.10;87.70
24678;DHT22;12800;53.094;8.778;2024-02-21T03:00:04;11.00;87.60
24678;DHT22;12800;53.094;8.778;2024-02-21T03:02:30;11.00;87.70
24678;DHT22;12800;53.094;8.778;2024-02-21T03:04:56;11.00;87.80
24678;DHT22;12800;53.094;8.778;2024-02-21T03:07:23;11.00;87.70
24678;DHT22;12800;53.094;8.778;2024-02-21T03:09:50;11.00;87.80
24678;DHT22;12800;53.094;8.778;2024-02-21T03:12:15;11.00;87.80
24678;DHT22;12800;53.094;8.778;2024-02-21T03:14:52;10.90;87.80
24678;DHT22;12800;53.094;8.778;2024-02-21T03:17:17;10.90;87.80
24678;DHT22;12800;53.094;8.778;2024-02-21T03:19:43;11.00;88.00
24678;DHT22;12800;53.094;8.778;2024-02-21T03:22:08;11.00;88.10
24678;DHT22;12800;53.094;8.778;2024-02-21T03:24:34;11.00;87.90
24678;DHT22;12800;53.094;8.778;2024-02-21T03:27:00;11.00;88.00
24678;DHT22;12800;53.094;8.778;2024-02-21T03:29:25;11.00;88.00
24678;DHT22;12800;53.094;8.778;2024-02-21T03:31:51;11.00;88.00
24678;DHT22;12800;53.094;8.778;2024-02-21T03:34:16;11.00;87.90
24678;DHT22;12800;53.094;8.778;2024-02-21T03:36:42;11.00;88.10
24678;DHT22;12800;53.094;8.778;2024-02-21T03:39:08;11.00;88.20
24678;DHT22;12800;53.094;8.778;2024-02-21T03:41:34;11.00;88.20
24678;DHT22;12800;53.094;8.778;2024-02-21T03:44:00;11.00;88.30
24678;DHT22;12800;53.094;8.778;2024-02-21T03:46:26;10.90;88.30
24678;DHT22;12800;53.094;8.778;2024-02-21T03:48:52;10.90;88.60
24678;DHT22;12800;53.094;8.778;2024-02-21T03:51:17;10.90;88.90
24678;DHT22;12800;53.094;8.778;2024-02-21T03:53:43;10.90;89.20
24678;DHT22;12800;53.094;8.778;2024-02-21T03:56:09;10.90;89.40
24678;DHT22;12800;53.094;8.778;2024-02-21T03:58:34;10.90;89.50
24678;DHT22;12800;53.094;8.778;2024-02-21T04:01:00;10.90;90.20
24678;DHT22;12800;53.094;8.778;2024-02-21T04:03:30;10.90;89.80
24678;DHT22;12800;53.094;8.778;2024-02-21T04:05:56;10.90;89.90
24678;DHT22;12800;53.094;8.778;2024-02-21T04:08:23;10.80;89.90
24678;DHT22;12800;53.094;8.778;2024-02-21T04:10:48;10.90;90.00
24678;DHT22;12800;53.094;8.778;2024-02-21T04:13:14;10.80;90.10
24678;DHT22;12800;53.094;8.778;2024-02-21T04:15:40;10.90;90.10
24678;DHT22;12800;53.094;8.778;2024-02-21T04:18:06;10.80;90.10
24678;DHT22;12800;53.094;8.778;2024-02-21T04:20:31;10.80;90.20
24678;DHT22;12800;53.094;8.778;2024-02-21T04:22:58;10.80;90.20
24678;DHT22;12800;53.094;8.778;2024-02-21T04:25:23;10.80;90.30
24678;DHT22;12800;53.094;8.778;2024-02-21T04:27:49;10.80;90.40
24678;DHT22;12800;53.094;8.778;2024-02-21T04:30:15;10.80;90.50
24678;DHT22;12800;53.094;8.778;2024-02-21T04:32:41;10.80;90.50
24678;DHT22;12800;53.094;8.778;2024-02-21T04:35:07;10.70;90.50
24678;DHT22;12800;53.094;8.778;2024-02-21T04:37:33;10.80;90.60
24678;DHT22;12800;53.094;8.778;2024-02-21T04:39:58;10.70;90.60
24678;DHT22;12800;53.094;8.778;2024-02-21T04:42:24;10.70;90.70
24678;DHT22;12800;53.094;8.778;2024-02-21T04:44:50;10.70;90.80
24678;DHT22;12800;53.094;8.778;2024-02-21T04:47:15;10.70;90.80
24678;DHT22;12800;53.094;8.778;2024-02-21T04:49:41;10.70;90.80
24678;DHT22;12800;53.094;8.778;2024-02-21T04:52:07;10.70;90.90
24678;DHT22;12800;53.094;8.778;2024-02-21T04:54:32;10.70;91.20
24678;DHT22;12800;53.094;8.778;2024-02-21T04:57:00;10.60;90.90
24678;DHT22;12800;53.094;8.778;2024-02-21T04:59:26;10.60;90.90
24678;DHT22;12800;53.094;8.778;2024-02-21T05:01:52;10.60;91.00
24678;DHT22;12800;53.094;8.778;2024-02-21T05:04:17;10.60;91.00
24678;DHT22;12800;53.094;8.778;2024-02-21T05:06:43;10.60;91.00
24678;DHT22;12800;53.094;8.778;2024-02-21T05:09:09;10.60;91.10
24678;DHT22;12800;53.094;8.778;2024-02-21T05:11:38;10.60;91.10
24678;DHT22;12800;53.094;8.778;2024-02-21T05:14:04;10.60;91.30
24678;DHT22;12800;53.094;8.778;2024-02-21T05:16:33;10.60;91.20
24678;DHT22;12800;53.094;8.778;2024-02-21T05:18:59;10.60;91.30
24678;DHT22;12800;53.094;8.778;2024-02-21T05:21:24;10.60;91.30
24678;DHT22;12800;53.094;8.778;2024-02-21T05:23:51;10.60;91.60
24678;DHT22;12800;53.094;8.778;2024-02-21T05:26:26;10.60;91.30
24678;DHT22;12800;53.094;8.778;2024-02-21T05:28:52;10.60;91.40
24678;DHT22;12800;53.094;8.778;2024-02-21T05:31:19;10.60;91.30
24678;DHT22;12800;53.094;8.778;2024-02-21T05:33:46;10.60;91.40
24678;DHT22;12800;53.094;8.778;2024-02-21T05:36:12;10.60;91.80
24678;DHT22;12800;53.094;8.778;2024-02-21T05:38:38;10.60;91.40
24678;DHT22;12800;53.094;8.778;2024-02-21T05:41:04;10.60;91.40
24678;DHT22;12800;53.094;8.778;2024-02-21T05:43:30;10.60;91.40
24678;DHT22;12800;53.094;8.778;2024-02-21T05:45:56;10.60;91.40
24678;DHT22;12800;53.094;8.778;2024-02-21T05:48:24;10.60;91.50
24678;DHT22;12800;53.094;8.778;2024-02-21T05:50:50;10.60;91.50
24678;DHT22;12800;53.094;8.778;2024-02-21T05:53:16;10.60;91.80
24678;DHT22;12800;53.094;8.778;2024-02-21T05:55:42;10.60;91.50
24678;DHT22;12800;53.094;8.778;2024-02-21T05:58:08;10.60;91.60
24678;DHT22;12800;53.094;8.778;2024-02-21T06:00:39;10.60;91.60
24678;DHT22;12800;53.094;8.778;2024-02-21T06:03:04;10.60;91.60
24678;DHT22;12800;53.094;8.778;2024-02-21T06:05:30;10.60;91.60
24678;DHT22;12800;53.094;8.778;2024-02-21T06:07:57;10.70;91.60
24678;DHT22;12800;53.094;8.778;2024-02-21T06:10:22;10.70;91.60
24678;DHT22;12800;53.094;8.778;2024-02-21T06:12:48;10.60;91.60
24678;DHT22;12800;53.094;8.778;2024-02-21T06:15:14;10.60;91.60
24678;DHT22;12800;53.094;8.778;2024-02-21T06:17:39;10.60;91.50
24678;DHT22;12800;53.094;8.778;2024-02-21T06:20:05;10.70;91.60
24678;DHT22;12800;53.094;8.778;2024-02-21T06:22:31;10.60;91.60
24678;DHT22;12800;53.094;8.778;2024-02-21T06:24:57;10.60;91.60
24678;DHT22;12800;53.094;8.778;2024-02-21T06:27:22;10.70;91.60
24678;DHT22;12800;53.094;8.778;2024-02-21T06:29:49;10.70;91.60
24678;DHT22;12800;53.094;8.778;2024-02-21T06:32:15;10.70;91.60
24678;DHT22;12800;53.094;8.778;2024-02-21T06:34:41;10.70;91.60
24678;DHT22;12800;53.094;8.778;2024-02-21T06:37:06;10.70;92.00
24678;DHT22;12800;53.094;8.778;2024-02-21T06:39:32;10.70;91.60
24678;DHT22;12800;53.094;8.778;2024-02-21T06:41:57;10.70;91.70
24678;DHT22;12800;53.094;8.778;2024-02-21T06:44:23;10.70;91.70
24678;DHT22;12800;53.094;8.778;2024-02-21T06:46:48;10.70;91.60
24678;DHT22;12800;53.094;8.778;2024-02-21T06:49:14;10.70;91.70
24678;DHT22;12800;53.094;8.778;2024-02-21T06:51:44;10.70;91.70
24678;DHT22;12800;53.094;8.778;2024-02-21T06:54:10;10.70;91.70
24678;DHT22;12800;53.094;8.778;2024-02-21T06:56:36;10.70;91.70
24678;DHT22;12800;53.094;8.778;2024-02-21T06:59:02;10.70;91.70
24678;DHT22;12800;53.094;8.778;2024-02-21T07:01:29;10.70;91.80
24678;DHT22;12800;53.094;8.778;2024-02-21T07:03:55;10.70;91.80
24678;DHT22;12800;53.094;8.778;2024-02-21T07:06:20;10.70;91.80
24678;DHT22;12800;53.094;8.778;2024-02-21T07:08:46;10.70;91.80
24678;DHT22;12800;53.094;8.778;2024-02-21T07:11:11;10.70;91.80
24678;DHT22;12800;53.094;8.778;2024-02-21T07:13:37;10.70;91.80
24678;DHT22;12800;53.094;8.778;2024-02-21T07:16:03;10.70;91.80
24678;DHT22;12800;53.094;8.778;2024-02-21T07:18:28;10.80;91.90
24678;DHT22;12800;53.094;8.778;2024-02-21T07:20:54;10.70;91.80
24678;DHT22;12800;53.094;8.778;2024-02-21T07:23:20;10.80;91.90
24678;DHT22;12800;53.094;8.778;2024-02-21T07:25:46;10.70;91.80
24678;DHT22;12800;53.094;8.778;2024-02-21T07:28:12;10.80;91.90
24678;DHT22;12800;53.094;8.778;2024-02-21T07:30:39;10.80;91.90
24678;DHT22;12800;53.094;8.778;2024-02-21T07:33:04;10.80;91.80
24678;DHT22;12800;53.094;8.778;2024-02-21T07:35:30;10.80;91.90
24678;DHT22;12800;53.094;8.778;2024-02-21T07:37:55;10.90;91.90
24678;DHT22;12800;53.094;8.778;2024-02-21T07:40:21;10.80;91.80
24678;DHT22;12800;53.094;8.778;2024-02-21T07:42:47;10.80;91.70
24678;DHT22;12800;53.094;8.778;2024-02-21T07:45:12;10.90;91.70
24678;DHT22;12800;53.094;8.778;2024-02-21T07:47:38;10.90;91.70
24678;DHT22;12800;53.094;8.778;2024-02-21T07:50:04;10.90;91.70
24678;DHT22;12800;53.094;8.778;2024-02-21T07:52:29;10.90;91.70
24678;DHT22;12800;53.094;8.778;2024-02-21T07:54:55;10.90;91.70
24678;DHT22;12800;53.094;8.778;2024-02-21T07:57:21;11.00;91.70
24678;DHT22;12800;53.094;8.778;2024-02-21T07:59:47;11.00;91.70
24678;DHT22;12800;53.094;8.778;2024-02-21T08:02:16;11.00;91.60
24678;DHT22;12800;53.094;8.778;2024-02-21T08:04:42;11.00;91.60
24678;DHT22;12800;53.094;8.778;2024-02-21T08:07:08;11.00;91.60
24678;DHT22;12800;53.094;8.778;2024-02-21T08:09:34;11.00;91.50
24678;DHT22;12800;53.094;8.778;2024-02-21T08:12:00;11.10;91.60
24678;DHT22;12800;53.094;8.778;2024-02-21T08:14:26;11.10;91.60
24678;DHT22;12800;53.094;8.778;2024-02-21T08:16:52;11.10;91.50
24678;DHT22;12800;53.094;8.778;2024-02-21T08:19:21;11.20;91.50
24678;DHT22;12800;53.094;8.778;2024-02-21T08:21:47;11.20;91.50
24678;DHT22;12800;53.094;8.778;2024-02-21T08:24:16;11.20;91.50
24678;DHT22;12800;53.094;8.778;2024-02-21T08:26:43;11.20;91.40
24678;DHT22;12800;53.094;8.778;2024-02-21T08:29:10;11.20;91.40
24678;DHT22;12800;53.094;8.778;2024-02-21T08:31:36;11.20;91.40
24678;DHT22;12800;53.094;8.778;2024-02-21T08:34:01;11.30;91.50
24678;DHT22;12800;53.094;8.778;2024-02-21T08:36:34;11.40;91.40
24678;DHT22;12800;53.094;8.778;2024-02-21T08:39:02;11.40;91.40
24678;DHT22;12800;53.094;8.778;2024-02-21T08:41:31;11.40;91.20
24678;DHT22;12800;53.094;8.778;2024-02-21T08:43:57;11.40;91.20
24678;DHT22;12800;53.094;8.778;2024-02-21T08:46:23;11.40;91.20
24678;DHT22;12800;53.094;8.778;2024-02-21T08:48:53;11.50;91.20
24678;DHT22;12800;53.094;8.778;2024-02-21T08:51:19;11.50;91.20
24678;DHT22;12800;53.094;8.778;2024-02-21T08:53:45;11.50;91.10
24678;DHT22;12800;53.094;8.778;2024-02-21T08:56:11;11.50;91.10
24678;DHT22;12800;53.094;8.778;2024-02-21T08:58:38;11.50;91.00
24678;DHT22;12800;53.094;8.778;2024-02-21T09:01:05;11.60;91.00
24678;DHT22;12800;53.094;8.778;2024-02-21T09:03:32;11.50;91.30
24678;DHT22;12800;53.094;8.778;2024-02-21T09:05:59;11.50;90.80
24678;DHT22;12800;53.094;8.778;2024-02-21T09:08:25;11.50;90.80
24678;DHT22;12800;53.094;8.778;2024-02-21T09:10:51;11.50;90.80
24678;DHT22;12800;53.094;8.778;2024-02-21T09:13:17;11.50;90.90
24678;DHT22;12800;53.094;8.778;2024-02-21T09:15:42;11.50;90.80
24678;DHT22;12800;53.094;8.778;2024-02-21T09:18:08;11.50;90.80
24678;DHT22;12800;53.094;8.778;2024-02-21T09:20:34;11.60;90.80
24678;DHT22;12800;53.094;8.778;2024-02-21T09:22:59;11.50;90.70
24678;DHT22;12800;53.094;8.778;2024-02-21T09:25:25;11.50;90.80
24678;DHT22;12800;53.094;8.778;2024-02-21T09:27:51;11.50;90.90
24678;DHT22;12800;53.094;8.778;2024-02-21T09:30:19;11.50;90.80
24678;DHT22;12800;53.094;8.778;2024-02-21T09:32:45;11.50;90.80
24678;DHT22;12800;53.094;8.778;2024-02-21T09:35:11;11.60;90.90
24678;DHT22;12800;53.094;8.778;2024-02-21T09:37:40;11.60;90.80
24678;DHT22;12800;53.094;8.778;2024-02-21T09:40:07;11.60;90.90
24678;DHT22;12800;53.094;8.778;2024-02-21T09:42:40;11.60;90.70
24678;DHT22;12800;53.094;8.778;2024-02-21T09:45:23;11.60;90.70
24678;DHT22;12800;53.094;8.778;2024-02-21T09:50:43;11.60;90.50
24678;DHT22;12800;53.094;8.778;2024-02-21T09:53:12;11.60;90.50
24678;DHT22;12800;53.094;8.778;2024-02-21T09:55:39;11.60;90.40
24678;DHT22;12800;53.094;8.778;2024-02-21T09:58:07;11.50;90.30
24678;DHT22;12800;53.094;8.778;2024-02-21T10:00:34;11.50;90.30
24678;DHT22;12800;53.094;8.778;2024-02-21T10:03:00;11.50;90.30
24678;DHT22;12800;53.094;8.778;2024-02-21T10:05:26;11.50;90.30
24678;DHT22;12800;53.094;8.778;2024-02-21T10:07:53;11.50;90.30
24678;DHT22;12800;53.094;8.778;2024-02-21T10:10:19;11.50;90.30
24678;DHT22;12800;53.094;8.778;2024-02-21T10:12:51;11.50;90.20
24678;DHT22;12800;53.094;8.778;2024-02-21T10:15:20;11.50;90.10
24678;DHT22;12800;53.094;8.778;2024-02-21T10:17:47;11.60;90.20
24678;DHT22;12800;53.094;8.778;2024-02-21T10:20:13;11.50;90.10
24678;DHT22;12800;53.094;8.778;2024-02-21T10:22:40;11.50;90.00
24678;DHT22;12800;53.094;8.778;2024-02-21T10:25:10;11.50;90.00
24678;DHT22;12800;53.094;8.778;2024-02-21T10:27:39;11.60;90.00
24678;DHT22;12800;53.094;8.778;2024-02-21T10:30:12;11.60;89.90
24678;DHT22;12800;53.094;8.778;2024-02-21T10:33:05;11.60;89.80
24678;DHT22;12800;53.094;8.778;2024-02-21T10:35:32;11.60;89.90
24678;DHT22;12800;53.094;8.778;2024-02-21T10:37:59;11.60;89.80
24678;DHT22;12800;53.094;8.778;2024-02-21T10:40:27;11.70;89.80
24678;DHT22;12800;53.094;8.778;2024-02-21T10:43:00;11.70;89.50
24678;DHT22;12800;53.094;8.778;2024-02-21T10:45:34;11.80;89.30
24678;DHT22;12800;53.094;8.778;2024-02-21T10:48:16;11.80;88.90
24678;DHT22;12800;53.094;8.778;2024-02-21T10:58:50;11.90;88.10
24678;DHT22;12800;53.094;8.778;2024-02-21T11:01:17;11.90;88.00
24678;DHT22;12800;53.094;8.778;2024-02-21T11:03:45;11.90;87.80
24678;DHT22;12800;53.094;8.778;2024-02-21T11:06:12;12.00;87.70
24678;DHT22;12800;53.094;8.778;2024-02-21T11:08:39;12.00;87.60
24678;DHT22;12800;53.094;8.778;2024-02-21T11:11:05;12.00;88.10
24678;DHT22;12800;53.094;8.778;2024-02-21T11:13:32;12.10;87.30
24678;DHT22;12800;53.094;8.778;2024-02-21T11:16:10;12.20;87.10
24678;DHT22;12800;53.094;8.778;2024-02-21T11:18:39;12.20;86.70
24678;DHT22;12800;53.094;8.778;2024-02-21T11:21:05;12.30;86.60
24678;DHT22;12800;53.094;8.778;2024-02-21T11:23:31;12.40;86.50
24678;DHT22;12800;53.094;8.778;2024-02-21T11:26:10;12.50;86.30
24678;DHT22;12800;53.094;8.778;2024-02-21T11:28:44;12.60;86.20
24678;DHT22;12800;53.094;8.778;2024-02-21T11:31:14;12.70;85.60
24678;DHT22;12800;53.094;8.778;2024-02-21T11:33:43;12.70;85.30
24678;DHT22;12800;53.094;8.778;2024-02-21T11:36:09;12.80;85.00
24678;DHT22;12800;53.094;8.778;2024-02-21T11:38:35;12.80;84.50
24678;DHT22;12800;53.094;8.778;2024-02-21T11:41:01;12.80;84.20
24678;DHT22;12800;53.094;8.778;2024-02-21T11:43:27;12.90;83.60
24678;DHT22;12800;53.094;8.778;2024-02-21T11:46:02;12.90;83.60
24678;DHT22;12800;53.094;8.778;2024-02-21T11:48:29;12.90;83.40
24678;DHT22;12800;53.094;8.778;2024-02-21T11:50:56;12.90;83.00
24678;DHT22;12800;53.094;8.778;2024-02-21T11:53:22;12.90;82.80
24678;DHT22;12800;53.094;8.778;2024-02-21T11:55:47;12.90;82.60
24678;DHT22;12800;53.094;8.778;2024-02-21T11:58:14;12.90;82.40
24678;DHT22;12800;53.094;8.778;2024-02-21T12:00:40;12.90;82.40
24678;DHT22;12800;53.094;8.778;2024-02-21T12:03:06;13.00;82.90
24678;DHT22;12800;53.094;8.778;2024-02-21T12:05:32;13.00;82.00
24678;DHT22;12800;53.094;8.778;2024-02-21T12:07:58;12.90;81.30
24678;DHT22;12800;53.094;8.778;2024-02-21T12:10:25;12.90;81.30
24678;DHT22;12800;53.094;8.778;2024-02-21T12:12:52;12.90;81.40
24678;DHT22;12800;53.094;8.778;2024-02-21T12:15:18;12.90;81.40
24678;DHT22;12800;53.094;8.778;2024-02-21T12:17:44;12.90;81.40
24678;DHT22;12800;53.094;8.778;2024-02-21T12:20:10;13.00;81.30
24678;DHT22;12800;53.094;8.778;2024-02-21T12:22:39;13.00;81.00
24678;DHT22;12800;53.094;8.778;2024-02-21T12:25:21;13.00;80.60
24678;DHT22;12800;53.094;8.778;2024-02-21T12:27:52;13.10;80.50
24678;DHT22;12800;53.094;8.778;2024-02-21T12:30:18;13.10;80.30
24678;DHT22;12800;53.094;8.778;2024-02-21T12:32:48;13.10;80.20
24678;DHT22;12800;53.094;8.778;2024-02-21T12:35:14;13.10;79.40
24678;DHT22;12800;53.094;8.778;2024-02-21T12:37:39;13.10;79.20
24678;DHT22;12800;53.094;8.778;2024-02-21T12:40:06;13.00;79.10
24678;DHT22;12800;53.094;8.778;2024-02-21T12:42:35;13.00;79.20
24678;DHT22;12800;53.094;8.778;2024-02-21T12:45:02;13.00;79.20
24678;DHT22;12800;53.094;8.778;2024-02-21T12:47:28;13.00;79.10
24678;DHT22;12800;53.094;8.778;2024-02-21T12:49:54;13.00;79.00
24678;DHT22;12800;53.094;8.778;2024-02-21T12:52:19;13.00;78.80
24678;DHT22;12800;53.094;8.778;2024-02-21T12:54:45;13.00;78.60
24678;DHT22;12800;53.094;8.778;2024-02-21T12:57:11;13.00;78.50
24678;DHT22;12800;53.094;8.778;2024-02-21T12:59:36;13.10;78.60
24678;DHT22;12800;53.094;8.778;2024-02-21T13:02:03;13.10;78.10
24678;DHT22;12800;53.094;8.778;2024-02-21T13:04:28;13.10;77.90
24678;DHT22;12800;53.094;8.778;2024-02-21T13:06:54;13.10;77.90
24678;DHT22;12800;53.094;8.778;2024-02-21T13:09:21;13.10;77.60
24678;DHT22;12800;53.094;8.778;2024-02-21T13:11:46;13.10;77.90
24678;DHT22;12800;53.094;8.778;2024-02-21T13:14:12;13.10;77.90
24678;DHT22;12800;53.094;8.778;2024-02-21T13:16:38;13.10;78.60
24678;DHT22;12800;53.094;8.778;2024-02-21T13:19:07;13.10;77.70
24678;DHT22;12800;53.094;8.778;2024-02-21T13:21:35;13.10;77.70
24678;DHT22;12800;53.094;8.778;2024-02-21T13:24:01;13.10;77.80
24678;DHT22;12800;53.094;8.778;2024-02-21T13:26:27;13.20;77.80
24678;DHT22;12800;53.094;8.778;2024-02-21T13:28:53;13.20;77.30
24678;DHT22;12800;53.094;8.778;2024-02-21T13:31:19;13.20;77.30
24678;DHT22;12800;53.094;8.778;2024-02-21T13:33:44;13.20;76.80
24678;DHT22;12800;53.094;8.778;2024-02-21T13:36:10;13.20;76.70
24678;DHT22;12800;53.094;8.778;2024-02-21T13:38:36;13.20;76.50
24678;DHT22;12800;53.094;8.778;2024-02-21T13:41:01;13.20;76.40
24678;DHT22;12800;53.094;8.778;2024-02-21T13:43:27;13.20;76.30
24678;DHT22;12800;53.094;8.778;2024-02-21T13:45:57;13.20;76.40
24678;DHT22;12800;53.094;8.778;2024-02-21T13:48:24;13.20;76.10
24678;DHT22;12800;53.094;8.778;2024-02-21T13:50:50;13.20;76.10
24678;DHT22;12800;53.094;8.778;2024-02-21T13:53:15;13.20;76.10
24678;DHT22;12800;53.094;8.778;2024-02-21T13:55:44;13.20;76.00
24678;DHT22;12800;53.094;8.778;2024-02-21T13:58:10;13.10;75.70
24678;DHT22;12800;53.094;8.778;2024-02-21T14:00:35;13.10;75.70
24678;DHT22;12800;53.094;8.778;2024-02-21T14:03:01;13.10;75.90
24678;DHT22;12800;53.094;8.778;2024-02-21T14:05:27;13.20;76.30
24678;DHT22;12800;53.094;8.778;2024-02-21T14:07:52;13.20;76.00
24678;DHT22;12800;53.094;8.778;2024-02-21T14:10:20;13.20;75.90
24678;DHT22;12800;53.094;8.778;2024-02-21T14:12:46;13.10;75.70
24678;DHT22;12800;53.094;8.778;2024-02-21T14:15:13;13.10;75.50
24678;DHT22;12800;53.094;8.778;2024-02-21T14:17:39;13.00;75.50
24678;DHT22;12800;53.094;8.778;2024-02-21T14:20:06;13.00;76.40
24678;DHT22;12800;53.094;8.778;2024-02-21T14:22:31;13.00;75.40
24678;DHT22;12800;53.094;8.778;2024-02-21T14:24:57;13.00;75.80
24678;DHT22;12800;53.094;8.778;2024-02-21T14:27:22;13.00;75.60
24678;DHT22;12800;53.094;8.778;2024-02-21T14:29:48;13.00;75.40
24678;DHT22;12800;53.094;8.778;2024-02-21T14:32:14;13.00;75.50
24678;DHT22;12800;53.094;8.778;2024-02-21T14:34:39;13.00;75.40
24678;DHT22;12800;53.094;8.778;2024-02-21T14:37:05;13.00;75.50
24678;DHT22;12800;53.094;8.778;2024-02-21T14:39:31;13.00;75.40
24678;DHT22;12800;53.094;8.778;2024-02-21T14:41:58;12.90;75.50
24678;DHT22;12800;53.094;8.778;2024-02-21T14:44:25;12.90;75.50
24678;DHT22;12800;53.094;8.778;2024-02-21T14:46:51;12.90;75.40
24678;DHT22;12800;53.094;8.778;2024-02-21T14:49:16;12.80;75.10
24678;DHT22;12800;53.094;8.778;2024-02-21T14:51:44;12.80;75.30
24678;DHT22;12800;53.094;8.778;2024-02-21T14:54:10;12.80;75.40
24678;DHT22;12800;53.094;8.778;2024-02-21T14:56:36;12.70;75.30
24678;DHT22;12800;53.094;8.778;2024-02-21T14:59:01;12.70;75.30
24678;DHT22;12800;53.094;8.778;2024-02-21T15:01:27;12.70;75.20
24678;DHT22;12800;53.094;8.778;2024-02-21T15:03:53;12.60;75.30
24678;DHT22;12800;53.094;8.778;2024-02-21T15:06:18;12.60;75.60
24678;DHT22;12800;53.094;8.778;2024-02-21T15:08:44;12.50;75.70
24678;DHT22;12800;53.094;8.778;2024-02-21T15:11:10;12.50;75.90
24678;DHT22;12800;53.094;8.778;2024-02-21T15:13:35;12.40;76.00
24678;DHT22;12800;53.094;8.778;2024-02-21T15:16:02;12.40;76.20
24678;DHT22;12800;53.094;8.778;2024-02-21T15:18:30;12.40;76.50
24678;DHT22;12800;53.094;8.778;2024-02-21T15:20:58;12.40;76.50
24678;DHT22;12800;53.094;8.778;2024-02-21T15:23:24;12.30;76.70
24678;DHT22;12800;53.094;8.778;2024-02-21T15:25:50;12.30;76.80
24678;DHT22;12800;53.094;8.778;2024-02-21T15:28:16;12.30;77.00
24678;DHT22;12800;53.094;8.778;2024-02-21T15:30:41;12.30;76.90
24678;DHT22;12800;53.094;8.778;2024-02-21T15:33:07;12.20;77.20
24678;DHT22;12800;53.094;8.778;2024-02-21T15:35:33;12.20;77.20
24678;DHT22;12800;53.094;8.778;2024-02-21T15:37:59;12.20;77.40
24678;DHT22;12800;53.094;8.778;2024-02-21T15:40:25;12.20;77.40